sensor_id;sensor_type;location;lat;lon;timestamp;P1;durP1;ratioP1;P2;durP2;ratioP2
13455;SDS011;6800;50.940;6.940;2023-04-29T00:01:30;17.30;;;15.50;;
13455;SDS011;6800;50.940;6.940;2023-04-29T00:05:31;17.73;;;15.83;;
13455;SDS011;6800;50.940;6.940;2023-04-29T00:09:33;16.47;;;14.93;;
13455;SDS011;6800;50.940;6.940;2023-04-29T00:13:34;15.70;;;14.00;;
13455;SDS011;6800;50.940;6.940;2023-04-29T00:17:35;16.07;;;13.47;;
13455;SDS011;6800;50.940;6.940;2023-04-29T00:21:37;16.10;;;14.27;;
13455;SDS011;6800;50.940;6.940;2023-04-29T00:25:38;15.70;;;14.10;;
13455;SDS011;6800;50.940;6.940;2023-04-29T00:29:40;15.73;;;14.10;;
13455;SDS011;6800;50.940;6.940;2023-04-29T00:33:41;17.83;;;15.93;;
13455;SDS011;6800;50.940;6.940;2023-04-29T00:37:43;15.87;;;14.27;;
13455;SDS011;6800;50.940;6.940;2023-04-29T00:41:44;17.23;;;14.60;;
13455;SDS011;6800;50.940;6.940;2023-04-29T00:45:45;15.53;;;13.60;;
13455;SDS011;6800;50.940;6.940;2023-04-29T00:49:47;14.20;;;12.70;;
13455;SDS011;6800;50.940;6.940;2023-04-29T00:53:48;13.27;;;11.97;;
13455;SDS011;6800;50.940;6.940;2023-04-29T00:57:50;14.90;;;12.87;;
13455;SDS011;6800;50.940;6.940;2023-04-29T01:01:52;14.57;;;13.07;;
13455;SDS011;6800;50.940;6.940;2023-04-29T01:06:19;14.33;;;12.83;;
13455;SDS011;6800;50.940;6.940;2023-04-29T01:15:17;19.10;;;16.20;;
13455;SDS011;6800;50.940;6.940;2023-04-29T01:19:43;17.23;;;15.30;;
13455;SDS011;6800;50.940;6.940;2023-04-29T01:23:48;17.37;;;15.23;;
13455;SDS011;6800;50.940;6.940;2023-04-29T01:28:01;20.17;;;17.97;;
13455;SDS011;6800;50.940;6.940;2023-04-29T01:32:16;20.47;;;18.13;;
13455;SDS011;6800;50.940;6.940;2023-04-29T01:40:46;22.70;;;18.53;;
13455;SDS011;6800;50.940;6.940;2023-04-29T01:45:09;24.03;;;19.13;;
13455;SDS011;6800;50.940;6.940;2023-04-29T01:49:12;26.07;;;21.53;;
13455;SDS011;6800;50.940;6.940;2023-04-29T01:53:13;26.50;;;21.97;;
13455;SDS011;6800;50.940;6.940;2023-04-29T01:57:15;28.73;;;23.63;;
13455;SDS011;6800;50.940;6.940;2023-04-29T02:01:17;31.23;;;26.03;;
13455;SDS011;6800;50.940;6.940;2023-04-29T02:05:18;32.60;;;27.40;;
13455;SDS011;6800;50.940;6.940;2023-04-29T02:09:19;34.53;;;29.03;;
13455;SDS011;6800;50.940;6.940;2023-04-29T02:13:21;33.67;;;28.00;;
13455;SDS011;6800;50.940;6.940;2023-04-29T02:17:22;35.80;;;29.70;;
13455;SDS011;6800;50.940;6.940;2023-04-29T02:21:24;37.87;;;29.70;;
13455;SDS011;6800;50.940;6.940;2023-04-29T02:25:25;38.30;;;30.80;;
13455;SDS011;6800;50.940;6.940;2023-04-29T02:29:27;37.17;;;31.43;;
13455;SDS011;6800;50.940;6.940;2023-04-29T02:33:30;40.80;;;32.13;;
13455;SDS011;6800;50.940;6.940;2023-04-29T02:37:33;40.53;;;33.23;;
13455;SDS011;6800;50.940;6.940;2023-04-29T02:41:35;42.97;;;34.27;;
13455;SDS011;6800;50.940;6.940;2023-04-29T02:45:36;44.77;;;34.23;;
13455;SDS011;6800;50.940;6.940;2023-04-29T02:49:39;48.70;;;36.33;;
13455;SDS011;6800;50.940;6.940;2023-04-29T02:53:40;39.97;;;33.23;;
13455;SDS011;6800;50.940;6.940;2023-04-29T02:57:41;46.93;;;36.77;;
13455;SDS011;6800;50.940;6.940;2023-04-29T03:01:44;47.67;;;37.53;;
13455;SDS011;6800;50.940;6.940;2023-04-29T03:05:45;50.50;;;37.63;;
13455;SDS011;6800;50.940;6.940;2023-04-29T03:09:47;51.63;;;37.60;;
13455;SDS011;6800;50.940;6.940;2023-04-29T03:13:48;51.50;;;39.47;;
13455;SDS011;6800;50.940;6.940;2023-04-29T03:17:50;54.93;;;39.17;;
13455;SDS011;6800;50.940;6.940;2023-04-29T03:21:51;55.47;;;41.60;;
13455;SDS011;6800;50.940;6.940;2023-04-29T03:25:54;58.77;;;42.87;;
13455;SDS011;6800;50.940;6.940;2023-04-29T03:29:56;56.80;;;41.87;;
13455;SDS011;6800;50.940;6.940;2023-04-29T03:33:57;60.33;;;43.23;;
13455;SDS011;6800;50.940;6.940;2023-04-29T03:37:58;66.77;;;46.00;;
13455;SDS011;6800;50.940;6.940;2023-04-29T03:42:00;71.17;;;46.50;;
13455;SDS011;6800;50.940;6.940;2023-04-29T03:46:02;76.90;;;47.43;;
13455;SDS011;6800;50.940;6.940;2023-04-29T03:50:04;70.00;;;42.53;;
13455;SDS011;6800;50.940;6.940;2023-04-29T03:54:07;72.87;;;40.10;;
13455;SDS011;6800;50.940;6.940;2023-04-29T03:58:09;89.07;;;44.60;;
13455;SDS011;6800;50.940;6.940;2023-04-29T04:02:11;99.37;;;46.47;;
13455;SDS011;6800;50.940;6.940;2023-04-29T04:06:12;108.67;;;48.23;;
13455;SDS011;6800;50.940;6.940;2023-04-29T04:10:14;94.50;;;45.60;;
13455;SDS011;6800;50.940;6.940;2023-04-29T04:14:15;95.40;;;45.10;;
13455;SDS011;6800;50.940;6.940;2023-04-29T04:18:17;91.90;;;44.37;;
13455;SDS011;6800;50.940;6.940;2023-04-29T04:22:18;93.20;;;43.37;;
13455;SDS011;6800;50.940;6.940;2023-04-29T04:26:20;104.47;;;46.37;;
13455;SDS011;6800;50.940;6.940;2023-04-29T04:30:23;93.50;;;44.47;;
13455;SDS011;6800;50.940;6.940;2023-04-29T04:34:24;91.27;;;44.60;;
13455;SDS011;6800;50.940;6.940;2023-04-29T04:38:26;93.17;;;43.20;;
13455;SDS011;6800;50.940;6.940;2023-04-29T04:42:28;90.47;;;42.30;;
13455;SDS011;6800;50.940;6.940;2023-04-29T04:46:29;85.03;;;42.47;;
13455;SDS011;6800;50.940;6.940;2023-04-29T04:50:31;77.83;;;40.93;;
13455;SDS011;6800;50.940;6.940;2023-04-29T04:54:32;81.70;;;43.20;;
13455;SDS011;6800;50.940;6.940;2023-04-29T04:58:33;74.07;;;40.73;;
13455;SDS011;6800;50.940;6.940;2023-04-29T05:02:35;79.63;;;40.93;;
13455;SDS011;6800;50.940;6.940;2023-04-29T05:06:36;68.20;;;37.67;;
13455;SDS011;6800;50.940;6.940;2023-04-29T05:10:38;64.30;;;35.47;;
13455;SDS011;6800;50.940;6.940;2023-04-29T05:14:39;56.57;;;34.77;;
13455;SDS011;6800;50.940;6.940;2023-04-29T05:18:41;54.73;;;33.03;;
13455;SDS011;6800;50.940;6.940;2023-04-29T05:22:44;49.93;;;32.33;;
13455;SDS011;6800;50.940;6.940;2023-04-29T05:26:46;50.93;;;31.70;;
13455;SDS011;6800;50.940;6.940;2023-04-29T05:30:49;53.07;;;30.87;;
13455;SDS011;6800;50.940;6.940;2023-04-29T05:34:51;47.27;;;30.57;;
13455;SDS011;6800;50.940;6.940;2023-04-29T05:38:53;39.37;;;27.50;;
13455;SDS011;6800;50.940;6.940;2023-04-29T05:42:54;42.93;;;29.87;;
13455;SDS011;6800;50.940;6.940;2023-04-29T05:46:55;39.50;;;27.60;;
13455;SDS011;6800;50.940;6.940;2023-04-29T05:50:57;39.47;;;28.00;;
13455;SDS011;6800;50.940;6.940;2023-04-29T05:54:58;38.37;;;25.83;;
13455;SDS011;6800;50.940;6.940;2023-04-29T05:59:00;38.43;;;26.17;;
13455;SDS011;6800;50.940;6.940;2023-04-29T06:03:01;32.50;;;23.10;;
13455;SDS011;6800;50.940;6.940;2023-04-29T06:07:03;31.67;;;23.37;;
13455;SDS011;6800;50.940;6.940;2023-04-29T06:11:05;29.57;;;22.17;;
13455;SDS011;6800;50.940;6.940;2023-04-29T06:15:06;28.57;;;20.97;;
13455;SDS011;6800;50.940;6.940;2023-04-29T06:19:08;24.40;;;19.50;;
13455;SDS011;6800;50.940;6.940;2023-04-29T06:23:09;25.07;;;19.77;;
13455;SDS011;6800;50.940;6.940;2023-04-29T06:27:11;25.60;;;21.57;;
13455;SDS011;6800;50.940;6.940;2023-04-29T06:31:12;24.50;;;20.90;;
13455;SDS011;6800;50.940;6.940;2023-04-29T06:35:14;26.20;;;20.67;;
13455;SDS011;6800;50.940;6.940;2023-04-29T06:39:16;23.23;;;20.20;;
13455;SDS011;6800;50.940;6.940;2023-04-29T06:43:17;26.13;;;20.87;;
13455;SDS011;6800;50.940;6.940;2023-04-29T06:47:18;28.00;;;20.83;;
13455;SDS011;6800;50.940;6.940;2023-04-29T06:51:20;25.43;;;21.37;;
13455;SDS011;6800;50.940;6.940;2023-04-29T06:55:21;24.30;;;20.07;;
13455;SDS011;6800;50.940;6.940;2023-04-29T06:59:22;23.83;;;19.97;;
13455;SDS011;6800;50.940;6.940;2023-04-29T07:03:24;23.63;;;17.97;;
13455;SDS011;6800;50.940;6.940;2023-04-29T07:07:25;21.37;;;18.00;;
13455;SDS011;6800;50.940;6.940;2023-04-29T07:11:27;22.57;;;18.90;;
13455;SDS011;6800;50.940;6.940;2023-04-29T07:15:29;23.90;;;19.00;;
13455;SDS011;6800;50.940;6.940;2023-04-29T07:19:31;20.80;;;17.77;;
13455;SDS011;6800;50.940;6.940;2023-04-29T07:23:32;21.07;;;18.50;;
13455;SDS011;6800;50.940;6.940;2023-04-29T07:27:34;21.07;;;17.37;;
13455;SDS011;6800;50.940;6.940;2023-04-29T07:31:36;21.87;;;17.87;;
13455;SDS011;6800;50.940;6.940;2023-04-29T07:35:38;20.27;;;18.10;;
13455;SDS011;6800;50.940;6.940;2023-04-29T07:39:41;21.60;;;18.23;;
13455;SDS011;6800;50.940;6.940;2023-04-29T07:43:43;21.10;;;17.87;;
13455;SDS011;6800;50.940;6.940;2023-04-29T07:47:44;19.57;;;17.57;;
13455;SDS011;6800;50.940;6.940;2023-04-29T07:51:46;19.73;;;17.63;;
13455;SDS011;6800;50.940;6.940;2023-04-29T07:55:47;19.33;;;17.00;;
13455;SDS011;6800;50.940;6.940;2023-04-29T07:59:52;18.87;;;16.97;;
13455;SDS011;6800;50.940;6.940;2023-04-29T08:03:54;21.70;;;18.20;;
13455;SDS011;6800;50.940;6.940;2023-04-29T08:07:56;18.20;;;16.23;;
13455;SDS011;6800;50.940;6.940;2023-04-29T08:11:57;18.93;;;16.83;;
13455;SDS011;6800;50.940;6.940;2023-04-29T08:15:58;18.17;;;15.10;;
13455;SDS011;6800;50.940;6.940;2023-04-29T08:20:00;17.27;;;15.47;;
13455;SDS011;6800;50.940;6.940;2023-04-29T08:24:01;17.33;;;15.60;;
13455;SDS011;6800;50.940;6.940;2023-04-29T08:28:03;17.50;;;15.47;;
13455;SDS011;6800;50.940;6.940;2023-04-29T08:32:04;18.37;;;15.70;;
13455;SDS011;6800;50.940;6.940;2023-04-29T08:36:06;16.87;;;15.07;;
13455;SDS011;6800;50.940;6.940;2023-04-29T08:40:08;18.97;;;16.13;;
13455;SDS011;6800;50.940;6.940;2023-04-29T08:44:10;16.63;;;14.87;;
13455;SDS011;6800;50.940;6.940;2023-04-29T08:48:12;16.17;;;14.00;;
13455;SDS011;6800;50.940;6.940;2023-04-29T08:52:13;15.93;;;13.70;;
13455;SDS011;6800;50.940;6.940;2023-04-29T08:56:15;15.07;;;13.47;;
13455;SDS011;6800;50.940;6.940;2023-04-29T09:00:22;15.67;;;14.00;;
13455;SDS011;6800;50.940;6.940;2023-04-29T09:04:46;14.27;;;12.80;;
13455;SDS011;6800;50.940;6.940;2023-04-29T09:08:53;14.20;;;12.40;;
13455;SDS011;6800;50.940;6.940;2023-04-29T09:12:55;15.30;;;12.43;;
13455;SDS011;6800;50.940;6.940;2023-04-29T09:16:58;16.20;;;12.87;;
13455;SDS011;6800;50.940;6.940;2023-04-29T09:21:11;14.77;;;13.27;;
13455;SDS011;6800;50.940;6.940;2023-04-29T09:25:33;15.27;;;13.67;;
13455;SDS011;6800;50.940;6.940;2023-04-29T09:29:36;16.30;;;14.60;;
13455;SDS011;6800;50.940;6.940;2023-04-29T09:38:07;18.47;;;14.73;;
13455;SDS011;6800;50.940;6.940;2023-04-29T09:42:11;16.20;;;14.50;;
13455;SDS011;6800;50.940;6.940;2023-04-29T09:46:12;14.50;;;12.90;;
13455;SDS011;6800;50.940;6.940;2023-04-29T09:50:13;14.83;;;13.33;;
13455;SDS011;6800;50.940;6.940;2023-04-29T09:54:19;18.77;;;16.37;;
13455;SDS011;6800;50.940;6.940;2023-04-29T09:58:28;17.23;;;15.40;;
13455;SDS011;6800;50.940;6.940;2023-04-29T10:02:34;15.87;;;14.17;;
13455;SDS011;6800;50.940;6.940;2023-04-29T10:06:37;15.97;;;13.37;;
13455;SDS011;6800;50.940;6.940;2023-04-29T10:10:41;19.77;;;17.63;;
13455;SDS011;6800;50.940;6.940;2023-04-29T10:14:45;19.00;;;17.00;;
13455;SDS011;6800;50.940;6.940;2023-04-29T10:18:52;20.27;;;17.90;;
13455;SDS011;6800;50.940;6.940;2023-04-29T10:22:55;19.83;;;17.87;;
13455;SDS011;6800;50.940;6.940;2023-04-29T10:26:57;21.43;;;18.70;;
13455;SDS011;6800;50.940;6.940;2023-04-29T10:31:02;21.13;;;19.00;;
13455;SDS011;6800;50.940;6.940;2023-04-29T10:35:05;20.40;;;18.20;;
13455;SDS011;6800;50.940;6.940;2023-04-29T10:39:11;17.90;;;16.10;;
13455;SDS011;6800;50.940;6.940;2023-04-29T10:43:22;17.23;;;15.50;;
13455;SDS011;6800;50.940;6.940;2023-04-29T10:47:24;16.73;;;14.93;;
13455;SDS011;6800;50.940;6.940;2023-04-29T10:51:27;18.80;;;15.03;;
13455;SDS011;6800;50.940;6.940;2023-04-29T10:55:36;17.30;;;15.57;;
13455;SDS011;6800;50.940;6.940;2023-04-29T11:04:13;36.03;;;29.33;;
13455;SDS011;6800;50.940;6.940;2023-04-29T11:08:14;40.77;;;30.73;;
13455;SDS011;6800;50.940;6.940;2023-04-29T11:12:26;40.33;;;32.43;;
13455;SDS011;6800;50.940;6.940;2023-04-29T11:16:28;39.57;;;31.13;;
13455;SDS011;6800;50.940;6.940;2023-04-29T11:20:30;33.77;;;28.33;;
13455;SDS011;6800;50.940;6.940;2023-04-29T11:24:32;38.20;;;30.40;;
13455;SDS011;6800;50.940;6.940;2023-04-29T11:28:34;39.80;;;33.27;;
13455;SDS011;6800;50.940;6.940;2023-04-29T11:32:36;45.10;;;36.67;;
13455;SDS011;6800;50.940;6.940;2023-04-29T11:36:46;46.47;;;36.93;;
13455;SDS011;6800;50.940;6.940;2023-04-29T11:40:47;48.03;;;38.00;;
13455;SDS011;6800;50.940;6.940;2023-04-29T11:44:50;45.17;;;35.93;;
13455;SDS011;6800;50.940;6.940;2023-04-29T11:48:53;52.73;;;41.87;;
13455;SDS011;6800;50.940;6.940;2023-04-29T11:52:57;52.27;;;41.70;;
13455;SDS011;6800;50.940;6.940;2023-04-29T11:56:59;50.23;;;43.47;;
13455;SDS011;6800;50.940;6.940;2023-04-29T12:01:02;56.93;;;47.27;;
13455;SDS011;6800;50.940;6.940;2023-04-29T12:05:07;62.90;;;50.40;;
13455;SDS011;6800;50.940;6.940;2023-04-29T12:09:09;60.10;;;49.30;;
13455;SDS011;6800;50.940;6.940;2023-04-29T12:13:10;58.67;;;48.70;;
13455;SDS011;6800;50.940;6.940;2023-04-29T12:17:12;60.97;;;49.50;;
13455;SDS011;6800;50.940;6.940;2023-04-29T12:21:14;58.60;;;48.90;;
13455;SDS011;6800;50.940;6.940;2023-04-29T12:25:15;59.13;;;46.37;;
13455;SDS011;6800;50.940;6.940;2023-04-29T12:29:20;55.50;;;45.53;;
13455;SDS011;6800;50.940;6.940;2023-04-29T12:33:23;47.73;;;41.27;;
13455;SDS011;6800;50.940;6.940;2023-04-29T12:37:26;45.23;;;37.53;;
13455;SDS011;6800;50.940;6.940;2023-04-29T12:41:40;45.13;;;35.50;;
13455;SDS011;6800;50.940;6.940;2023-04-29T12:45:42;40.87;;;35.63;;
13455;SDS011;6800;50.940;6.940;2023-04-29T12:49:44;34.63;;;27.23;;
13455;SDS011;6800;50.940;6.940;2023-04-29T12:53:47;34.17;;;27.97;;
13455;SDS011;6800;50.940;6.940;2023-04-29T12:57:48;32.73;;;28.00;;
13455;SDS011;6800;50.940;6.940;2023-04-29T13:01:49;31.90;;;27.93;;
13455;SDS011;6800;50.940;6.940;2023-04-29T13:05:51;31.93;;;27.93;;
13455;SDS011;6800;50.940;6.940;2023-04-29T13:09:54;26.90;;;24.00;;
13455;SDS011;6800;50.940;6.940;2023-04-29T13:13:56;27.67;;;23.13;;
13455;SDS011;6800;50.940;6.940;2023-04-29T13:17:58;26.27;;;23.43;;
13455;SDS011;6800;50.940;6.940;2023-04-29T13:22:00;26.83;;;23.90;;
13455;SDS011;6800;50.940;6.940;2023-04-29T13:26:02;25.10;;;22.33;;
13455;SDS011;6800;50.940;6.940;2023-04-29T13:30:04;25.43;;;22.60;;
13455;SDS011;6800;50.940;6.940;2023-04-29T13:34:06;25.07;;;22.37;;
13455;SDS011;6800;50.940;6.940;2023-04-29T13:38:09;25.57;;;21.37;;
13455;SDS011;6800;50.940;6.940;2023-04-29T13:42:11;23.80;;;21.30;;
13455;SDS011;6800;50.940;6.940;2023-04-29T13:46:14;24.30;;;21.67;;
13455;SDS011;6800;50.940;6.940;2023-04-29T13:50:16;24.33;;;21.80;;
13455;SDS011;6800;50.940;6.940;2023-04-29T13:54:37;23.77;;;21.27;;
13455;SDS011;6800;50.940;6.940;2023-04-29T13:58:59;23.90;;;21.23;;
13455;SDS011;6800;50.940;6.940;2023-04-29T14:03:03;22.83;;;20.40;;
13455;SDS011;6800;50.940;6.940;2023-04-29T14:07:07;23.50;;;20.35;;
13455;SDS011;6800;50.940;6.940;2023-04-29T14:11:08;21.27;;;19.17;;
13455;SDS011;6800;50.940;6.940;2023-04-29T14:15:10;23.60;;;21.20;;
13455;SDS011;6800;50.940;6.940;2023-04-29T14:19:12;22.05;;;19.75;;
13455;SDS011;6800;50.940;6.940;2023-04-29T14:23:13;22.55;;;20.30;;
13455;SDS011;6800;50.940;6.940;2023-04-29T14:27:15;22.77;;;20.37;;
13455;SDS011;6800;50.940;6.940;2023-04-29T14:31:16;22.65;;;20.27;;
13455;SDS011;6800;50.940;6.940;2023-04-29T14:35:18;22.37;;;20.07;;
13455;SDS011;6800;50.940;6.940;2023-04-29T14:39:20;23.93;;;21.33;;
13455;SDS011;6800;50.940;6.940;2023-04-29T14:43:21;22.73;;;20.53;;
13455;SDS011;6800;50.940;6.940;2023-04-29T14:47:23;22.60;;;20.13;;
13455;SDS011;6800;50.940;6.940;2023-04-29T14:51:24;21.83;;;19.53;;
13455;SDS011;6800;50.940;6.940;2023-04-29T14:55:27;22.87;;;20.47;;
13455;SDS011;6800;50.940;6.940;2023-04-29T14:59:31;22.87;;;20.10;;
13455;SDS011;6800;50.940;6.940;2023-04-29T15:03:33;23.27;;;20.77;;
13455;SDS011;6800;50.940;6.940;2023-04-29T15:07:44;22.53;;;20.27;;
13455;SDS011;6800;50.940;6.940;2023-04-29T15:11:46;22.37;;;20.17;;
13455;SDS011;6800;50.940;6.940;2023-04-29T15:15:48;22.23;;;20.03;;
13455;SDS011;6800;50.940;6.940;2023-04-29T15:19:49;21.77;;;19.57;;
13455;SDS011;6800;50.940;6.940;2023-04-29T15:23:51;22.33;;;20.17;;
13455;SDS011;6800;50.940;6.940;2023-04-29T15:27:53;21.40;;;19.40;;
13455;SDS011;6800;50.940;6.940;2023-04-29T15:31:54;23.07;;;20.80;;
13455;SDS011;6800;50.940;6.940;2023-04-29T15:35:56;21.53;;;19.47;;
13455;SDS011;6800;50.940;6.940;2023-04-29T15:39:57;23.37;;;20.93;;
13455;SDS011;6800;50.940;6.940;2023-04-29T15:44:00;23.83;;;21.43;;
13455;SDS011;6800;50.940;6.940;2023-04-29T15:48:01;24.73;;;22.33;;
13455;SDS011;6800;50.940;6.940;2023-04-29T15:52:03;25.03;;;22.50;;
13455;SDS011;6800;50.940;6.940;2023-04-29T15:56:07;25.33;;;22.90;;
13455;SDS011;6800;50.940;6.940;2023-04-29T16:00:08;25.23;;;22.63;;
13455;SDS011;6800;50.940;6.940;2023-04-29T16:04:10;25.27;;;22.63;;
13455;SDS011;6800;50.940;6.940;2023-04-29T16:08:12;23.93;;;21.47;;
13455;SDS011;6800;50.940;6.940;2023-04-29T16:12:13;24.97;;;22.47;;
13455;SDS011;6800;50.940;6.940;2023-04-29T16:16:14;24.80;;;22.40;;
13455;SDS011;6800;50.940;6.940;2023-04-29T16:20:16;27.47;;;24.77;;
13455;SDS011;6800;50.940;6.940;2023-04-29T16:24:19;24.63;;;22.40;;
13455;SDS011;6800;50.940;6.940;2023-04-29T16:28:20;27.03;;;24.43;;
13455;SDS011;6800;50.940;6.940;2023-04-29T16:32:22;26.07;;;23.57;;
13455;SDS011;6800;50.940;6.940;2023-04-29T16:36:23;27.23;;;24.67;;
13455;SDS011;6800;50.940;6.940;2023-04-29T16:40:26;27.53;;;24.90;;
13455;SDS011;6800;50.940;6.940;2023-04-29T16:44:28;27.53;;;24.97;;
13455;SDS011;6800;50.940;6.940;2023-04-29T16:48:30;29.40;;;26.30;;
13455;SDS011;6800;50.940;6.940;2023-04-29T16:52:31;30.27;;;27.17;;
13455;SDS011;6800;50.940;6.940;2023-04-29T16:56:33;29.30;;;26.43;;
13455;SDS011;6800;50.940;6.940;2023-04-29T17:00:34;29.13;;;26.33;;
13455;SDS011;6800;50.940;6.940;2023-04-29T17:04:35;29.00;;;26.30;;
13455;SDS011;6800;50.940;6.940;2023-04-29T17:08:37;29.27;;;26.30;;
13455;SDS011;6800;50.940;6.940;2023-04-29T17:12:38;30.03;;;27.03;;
13455;SDS011;6800;50.940;6.940;2023-04-29T17:16:40;30.20;;;27.20;;
13455;SDS011;6800;50.940;6.940;2023-04-29T17:20:42;27.93;;;25.13;;
13455;SDS011;6800;50.940;6.940;2023-04-29T17:24:43;28.73;;;25.97;;
13455;SDS011;6800;50.940;6.940;2023-04-29T17:28:46;28.37;;;25.43;;
13455;SDS011;6800;50.940;6.940;2023-04-29T17:32:48;25.67;;;23.27;;
13455;SDS011;6800;50.940;6.940;2023-04-29T17:36:51;27.10;;;24.50;;
13455;SDS011;6800;50.940;6.940;2023-04-29T17:40:53;26.40;;;23.77;;
13455;SDS011;6800;50.940;6.940;2023-04-29T17:44:55;26.80;;;24.20;;
13455;SDS011;6800;50.940;6.940;2023-04-29T17:48:56;25.77;;;23.30;;
13455;SDS011;6800;50.940;6.940;2023-04-29T17:52:57;26.53;;;24.13;;
13455;SDS011;6800;50.940;6.940;2023-04-29T17:56:59;25.80;;;23.47;;
13455;SDS011;6800;50.940;6.940;2023-04-29T18:01:03;27.33;;;24.40;;
13455;SDS011;6800;50.940;6.940;2023-04-29T18:05:06;26.33;;;23.77;;
13455;SDS011;6800;50.940;6.940;2023-04-29T18:09:07;26.57;;;24.20;;
13455;SDS011;6800;50.940;6.940;2023-04-29T18:13:09;27.57;;;24.80;;
13455;SDS011;6800;50.940;6.940;2023-04-29T18:17:11;25.17;;;22.77;;
13455;SDS011;6800;50.940;6.940;2023-04-29T18:21:17;28.10;;;25.40;;
13455;SDS011;6800;50.940;6.940;2023-04-29T18:25:22;28.20;;;25.40;;
13455;SDS011;6800;50.940;6.940;2023-04-29T18:29:23;28.63;;;25.90;;
13455;SDS011;6800;50.940;6.940;2023-04-29T18:33:25;27.80;;;25.00;;
13455;SDS011;6800;50.940;6.940;2023-04-29T18:37:26;25.87;;;23.53;;
13455;SDS011;6800;50.940;6.940;2023-04-29T18:41:28;26.00;;;23.30;;
13455;SDS011;6800;50.940;6.940;2023-04-29T18:45:29;28.07;;;25.13;;
13455;SDS011;6800;50.940;6.940;2023-04-29T18:49:30;25.07;;;22.53;;
13455;SDS011;6800;50.940;6.940;2023-04-29T18:53:32;25.23;;;22.80;;
13455;SDS011;6800;50.940;6.940;2023-04-29T18:57:34;26.13;;;23.53;;
13455;SDS011;6800;50.940;6.940;2023-04-29T19:01:35;25.10;;;22.50;;
13455;SDS011;6800;50.940;6.940;2023-04-29T19:05:37;25.70;;;23.23;;
13455;SDS011;6800;50.940;6.940;2023-04-29T19:09:38;26.90;;;24.27;;
13455;SDS011;6800;50.940;6.940;2023-04-29T19:13:40;28.37;;;25.40;;
13455;SDS011;6800;50.940;6.940;2023-04-29T19:17:41;27.63;;;24.83;;
13455;SDS011;6800;50.940;6.940;2023-04-29T19:21:43;30.33;;;27.33;;
13455;SDS011;6800;50.940;6.940;2023-04-29T19:25:45;28.70;;;25.80;;
13455;SDS011;6800;50.940;6.940;2023-04-29T19:29:46;31.77;;;28.40;;
13455;SDS011;6800;50.940;6.940;2023-04-29T19:33:47;29.30;;;26.50;;
13455;SDS011;6800;50.940;6.940;2023-04-29T19:37:49;29.57;;;26.60;;
13455;SDS011;6800;50.940;6.940;2023-04-29T19:41:50;28.57;;;25.77;;
13455;SDS011;6800;50.940;6.940;2023-04-29T19:45:51;25.80;;;23.10;;
13455;SDS011;6800;50.940;6.940;2023-04-29T19:49:53;25.83;;;23.30;;
13455;SDS011;6800;50.940;6.940;2023-04-29T19:53:55;25.23;;;22.47;;
13455;SDS011;6800;50.940;6.940;2023-04-29T19:57:56;26.43;;;23.63;;
13455;SDS011;6800;50.940;6.940;2023-04-29T20:01:58;26.23;;;23.60;;
13455;SDS011;6800;50.940;6.940;2023-04-29T20:05:59;25.37;;;22.97;;
13455;SDS011;6800;50.940;6.940;2023-04-29T20:10:02;25.43;;;22.97;;
13455;SDS011;6800;50.940;6.940;2023-04-29T20:14:05;27.27;;;24.40;;
13455;SDS011;6800;50.940;6.940;2023-04-29T20:18:06;26.00;;;23.40;;
13455;SDS011;6800;50.940;6.940;2023-04-29T20:22:07;26.40;;;23.83;;
13455;SDS011;6800;50.940;6.940;2023-04-29T20:26:09;24.73;;;22.40;;
13455;SDS011;6800;50.940;6.940;2023-04-29T20:30:11;27.93;;;25.23;;
13455;SDS011;6800;50.940;6.940;2023-04-29T20:34:12;28.23;;;25.43;;
13455;SDS011;6800;50.940;6.940;2023-04-29T20:38:14;28.77;;;25.77;;
13455;SDS011;6800;50.940;6.940;2023-04-29T20:42:15;29.03;;;26.13;;
13455;SDS011;6800;50.940;6.940;2023-04-29T20:46:17;30.93;;;27.90;;
13455;SDS011;6800;50.940;6.940;2023-04-29T20:50:18;29.50;;;26.40;;
13455;SDS011;6800;50.940;6.940;2023-04-29T20:54:20;31.93;;;28.63;;
13455;SDS011;6800;50.940;6.940;2023-04-29T20:58:21;30.50;;;27.40;;
13455;SDS011;6800;50.940;6.940;2023-04-29T21:02:23;31.30;;;28.27;;
13455;SDS011;6800;50.940;6.940;2023-04-29T21:06:24;32.33;;;28.43;;
13455;SDS011;6800;50.940;6.940;2023-04-29T21:10:27;33.70;;;30.20;;
13455;SDS011;6800;50.940;6.940;2023-04-29T21:14:28;32.43;;;29.13;;
13455;SDS011;6800;50.940;6.940;2023-04-29T21:18:29;32.20;;;28.97;;
13455;SDS011;6800;50.940;6.940;2023-04-29T21:22:31;33.47;;;30.27;;
13455;SDS011;6800;50.940;6.940;2023-04-29T21:26:32;34.80;;;31.00;;
13455;SDS011;6800;50.940;6.940;2023-04-29T21:30:34;33.57;;;30.27;;
13455;SDS011;6800;50.940;6.940;2023-04-29T21:34:35;37.03;;;33.17;;
13455;SDS011;6800;50.940;6.940;2023-04-29T21:38:36;39.07;;;34.97;;
13455;SDS011;6800;50.940;6.940;2023-04-29T21:42:40;37.73;;;33.73;;
13455;SDS011;6800;50.940;6.940;2023-04-29T21:46:43;36.43;;;32.83;;
13455;SDS011;6800;50.940;6.940;2023-04-29T21:50:45;33.50;;;30.20;;
13455;SDS011;6800;50.940;6.940;2023-04-29T21:54:47;33.70;;;30.17;;
13455;SDS011;6800;50.940;6.940;2023-04-29T21:58:49;34.60;;;31.03;;
13455;SDS011;6800;50.940;6.940;2023-04-29T22:02:50;34.23;;;30.90;;
13455;SDS011;6800;50.940;6.940;2023-04-29T22:06:52;36.50;;;32.57;;
13455;SDS011;6800;50.940;6.940;2023-04-29T22:10:53;35.67;;;31.97;;
13455;SDS011;6800;50.940;6.940;2023-04-29T22:14:55;34.20;;;30.70;;
13455;SDS011;6800;50.940;6.940;2023-04-29T22:18:56;36.53;;;32.77;;
13455;SDS011;6800;50.940;6.940;2023-04-29T22:22:57;34.30;;;30.73;;
13455;SDS011;6800;50.940;6.940;2023-04-29T22:26:59;35.67;;;31.80;;
13455;SDS011;6800;50.940;6.940;2023-04-29T22:31:01;38.80;;;34.63;;
13455;SDS011;6800;50.940;6.940;2023-04-29T22:35:03;40.70;;;34.40;;
13455;SDS011;6800;50.940;6.940;2023-04-29T22:39:05;37.87;;;34.07;;
13455;SDS011;6800;50.940;6.940;2023-04-29T22:43:06;40.77;;;36.50;;
13455;SDS011;6800;50.940;6.940;2023-04-29T22:47:08;37.63;;;33.73;;
13455;SDS011;6800;50.940;6.940;2023-04-29T22:51:09;36.83;;;33.13;;
13455;SDS011;6800;50.940;6.940;2023-04-29T22:55:10;37.00;;;33.13;;
13455;SDS011;6800;50.940;6.940;2023-04-29T22:59:13;37.33;;;33.37;;
13455;SDS011;6800;50.940;6.940;2023-04-29T23:03:15;38.10;;;34.23;;
13455;SDS011;6800;50.940;6.940;2023-04-29T23:07:16;38.07;;;34.27;;
13455;SDS011;6800;50.940;6.940;2023-04-29T23:11:18;39.90;;;35.80;;
13455;SDS011;6800;50.940;6.940;2023-04-29T23:15:19;41.00;;;36.60;;
13455;SDS011;6800;50.940;6.940;2023-04-29T23:19:21;40.47;;;36.37;;
13455;SDS011;6800;50.940;6.940;2023-04-29T23:23:23;45.73;;;40.57;;
13455;SDS011;6800;50.940;6.940;2023-04-29T23:27:24;52.23;;;44.60;;
13455;SDS011;6800;50.940;6.940;2023-04-29T23:31:25;49.57;;;42.70;;
13455;SDS011;6800;50.940;6.940;2023-04-29T23:35:27;42.20;;;37.60;;
13455;SDS011;6800;50.940;6.940;2023-04-29T23:39:28;39.00;;;35.10;;
13455;SDS011;6800;50.940;6.940;2023-04-29T23:43:29;43.50;;;38.90;;
13455;SDS011;6800;50.940;6.940;2023-04-29T23:47:31;42.37;;;37.93;;
13455;SDS011;6800;50.940;6.940;2023-04-29T23:51:32;45.10;;;38.33;;
13455;SDS011;6800;50.940;6.940;2023-04-29T23:55:37;44.77;;;38.67;;
13455;SDS011;6800;50.940;6.940;2023-04-29T23:59:39;41.17;;;36.40;;
